sensor_id;sensor_type;location;lat;lon;timestamp;P1;durP1;ratioP1;P2;durP2;ratioP2
9698;SDS011;10089;47.876;8.346;2024-03-23T00:55:59;4.45;;;2.20;;
9698;SDS011;10089;47.876;8.346;2024-03-23T00:58:25;2.42;;;2.22;;
9698;SDS011;10089;47.876;8.346;2024-03-23T01:00:50;3.35;;;2.25;;
9698;SDS011;10089;47.876;8.346;2024-03-23T01:03:16;2.30;;;2.10;;
9698;SDS011;10089;47.876;8.346;2024-03-23T01:05:41;3.88;;;1.90;;
9698;SDS011;10089;47.876;8.346;2024-03-23T01:08:07;5.32;;;2.08;;
9698;SDS011;10089;47.876;8.346;2024-03-23T01:10:32;2.78;;;2.30;;
9698;SDS011;10089;47.876;8.346;2024-03-23T01:12:58;2.35;;;1.83;;
9698;SDS011;10089;47.876;8.346;2024-03-23T01:15:23;3.00;;;1.90;;
9698;SDS011;10089;47.876;8.346;2024-03-23T01:17:49;3.10;;;2.08;;
9698;SDS011;10089;47.876;8.346;2024-03-23T01:20:15;2.45;;;2.03;;
9698;SDS011;10089;47.876;8.346;2024-03-23T01:22:40;2.78;;;2.05;;
9698;SDS011;10089;47.876;8.346;2024-03-23T01:25:06;3.47;;;1.88;;
9698;SDS011;10089;47.876;8.346;2024-03-23T01:27:32;8.13;;;2.20;;
9698;SDS011;10089;47.876;8.346;2024-03-23T01:29:59;3.50;;;1.70;;
9698;SDS011;10089;47.876;8.346;2024-03-23T01:32:24;1.95;;;1.75;;
9698;SDS011;10089;47.876;8.346;2024-03-23T01:34:50;3.35;;;2.20;;
9698;SDS011;10089;47.876;8.346;2024-03-23T01:37:15;2.75;;;1.90;;
9698;SDS011;10089;47.876;8.346;2024-03-23T01:39:41;2.65;;;2.20;;
9698;SDS011;10089;47.876;8.346;2024-03-23T01:42:06;5.75;;;2.10;;
9698;SDS011;10089;47.876;8.346;2024-03-23T01:44:32;4.72;;;2.35;;
9698;SDS011;10089;47.876;8.346;2024-03-23T01:46:57;3.53;;;2.17;;
9698;SDS011;10089;47.876;8.346;2024-03-23T01:49:23;2.75;;;2.30;;
9698;SDS011;10089;47.876;8.346;2024-03-23T01:51:49;3.72;;;2.60;;
9698;SDS011;10089;47.876;8.346;2024-03-23T01:54:15;2.67;;;2.25;;
9698;SDS011;10089;47.876;8.346;2024-03-23T01:56:41;5.72;;;2.03;;
9698;SDS011;10089;47.876;8.346;2024-03-23T01:59:06;4.15;;;2.55;;
9698;SDS011;10089;47.876;8.346;2024-03-23T02:01:32;5.82;;;2.92;;
9698;SDS011;10089;47.876;8.346;2024-03-23T02:04:01;4.07;;;2.40;;
9698;SDS011;10089;47.876;8.346;2024-03-23T02:06:27;2.75;;;2.45;;
9698;SDS011;10089;47.876;8.346;2024-03-23T02:08:53;4.18;;;2.55;;
9698;SDS011;10089;47.876;8.346;2024-03-23T02:11:19;3.45;;;2.42;;
9698;SDS011;10089;47.876;8.346;2024-03-23T02:13:45;4.55;;;2.45;;
9698;SDS011;10089;47.876;8.346;2024-03-23T02:16:11;3.92;;;2.90;;
9698;SDS011;10089;47.876;8.346;2024-03-23T02:18:38;6.63;;;3.13;;
9698;SDS011;10089;47.876;8.346;2024-03-23T02:21:03;5.32;;;2.80;;
9698;SDS011;10089;47.876;8.346;2024-03-23T02:23:29;3.67;;;2.70;;
9698;SDS011;10089;47.876;8.346;2024-03-23T02:25:55;6.25;;;3.03;;
9698;SDS011;10089;47.876;8.346;2024-03-23T02:28:20;5.43;;;3.08;;
9698;SDS011;10089;47.876;8.346;2024-03-23T02:30:48;3.80;;;3.40;;
9698;SDS011;10089;47.876;8.346;2024-03-23T02:33:14;5.50;;;2.72;;
9698;SDS011;10089;47.876;8.346;2024-03-23T02:35:39;4.28;;;3.42;;
9698;SDS011;10089;47.876;8.346;2024-03-23T02:38:05;3.53;;;2.83;;
9698;SDS011;10089;47.876;8.346;2024-03-23T02:40:30;3.63;;;2.50;;
9698;SDS011;10089;47.876;8.346;2024-03-23T02:42:56;4.93;;;3.00;;
9698;SDS011;10089;47.876;8.346;2024-03-23T02:45:21;3.08;;;2.78;;
9698;SDS011;10089;47.876;8.346;2024-03-23T02:47:47;4.13;;;2.72;;
9698;SDS011;10089;47.876;8.346;2024-03-23T02:50:16;3.75;;;2.95;;
9698;SDS011;10089;47.876;8.346;2024-03-23T02:52:45;3.92;;;2.67;;
9698;SDS011;10089;47.876;8.346;2024-03-23T02:55:11;4.50;;;2.85;;
9698;SDS011;10089;47.876;8.346;2024-03-23T02:57:36;5.80;;;2.65;;
9698;SDS011;10089;47.876;8.346;2024-03-23T03:00:02;4.65;;;2.58;;
9698;SDS011;10089;47.876;8.346;2024-03-23T03:02:28;2.60;;;2.30;;
9698;SDS011;10089;47.876;8.346;2024-03-23T03:04:54;3.08;;;2.17;;
9698;SDS011;10089;47.876;8.346;2024-03-23T03:07:19;4.78;;;2.20;;
9698;SDS011;10089;47.876;8.346;2024-03-23T03:09:45;3.10;;;2.35;;
9698;SDS011;10089;47.876;8.346;2024-03-23T03:12:10;3.30;;;2.45;;
9698;SDS011;10089;47.876;8.346;2024-03-23T03:14:36;3.00;;;2.00;;
9698;SDS011;10089;47.876;8.346;2024-03-23T03:17:02;5.10;;;2.30;;
9698;SDS011;10089;47.876;8.346;2024-03-23T03:19:28;2.88;;;2.30;;
9698;SDS011;10089;47.876;8.346;2024-03-23T03:21:53;4.20;;;2.20;;
9698;SDS011;10089;47.876;8.346;2024-03-23T03:24:19;8.27;;;3.22;;
9698;SDS011;10089;47.876;8.346;2024-03-23T03:26:44;6.05;;;2.22;;
9698;SDS011;10089;47.876;8.346;2024-03-23T03:29:10;2.58;;;2.05;;
9698;SDS011;10089;47.876;8.346;2024-03-23T03:31:36;6.40;;;2.38;;
9698;SDS011;10089;47.876;8.346;2024-03-23T03:34:02;4.22;;;2.38;;
9698;SDS011;10089;47.876;8.346;2024-03-23T03:36:28;4.22;;;2.17;;
9698;SDS011;10089;47.876;8.346;2024-03-23T03:38:54;4.80;;;2.50;;
9698;SDS011;10089;47.876;8.346;2024-03-23T03:41:19;3.58;;;2.13;;
9698;SDS011;10089;47.876;8.346;2024-03-23T03:43:45;3.95;;;2.50;;
9698;SDS011;10089;47.876;8.346;2024-03-23T03:46:11;3.25;;;2.63;;
9698;SDS011;10089;47.876;8.346;2024-03-23T03:48:36;2.83;;;1.92;;
9698;SDS011;10089;47.876;8.346;2024-03-23T03:51:02;4.10;;;2.30;;
9698;SDS011;10089;47.876;8.346;2024-03-23T03:53:28;3.47;;;2.33;;
9698;SDS011;10089;47.876;8.346;2024-03-23T03:55:55;7.97;;;2.85;;
9698;SDS011;10089;47.876;8.346;2024-03-23T03:58:20;5.65;;;2.85;;
9698;SDS011;10089;47.876;8.346;2024-03-23T04:00:46;3.13;;;2.00;;
9698;SDS011;10089;47.876;8.346;2024-03-23T04:03:11;4.15;;;2.40;;
9698;SDS011;10089;47.876;8.346;2024-03-23T04:05:37;5.93;;;3.30;;
9698;SDS011;10089;47.876;8.346;2024-03-23T04:08:03;5.03;;;2.47;;
9698;SDS011;10089;47.876;8.346;2024-03-23T04:10:29;4.40;;;2.40;;
9698;SDS011;10089;47.876;8.346;2024-03-23T04:12:55;3.25;;;2.60;;
9698;SDS011;10089;47.876;8.346;2024-03-23T04:15:21;4.43;;;2.63;;
9698;SDS011;10089;47.876;8.346;2024-03-23T04:17:46;5.00;;;2.55;;
9698;SDS011;10089;47.876;8.346;2024-03-23T04:20:12;5.53;;;2.38;;
9698;SDS011;10089;47.876;8.346;2024-03-23T04:22:41;7.50;;;2.95;;
9698;SDS011;10089;47.876;8.346;2024-03-23T04:25:08;9.13;;;2.63;;
9698;SDS011;10089;47.876;8.346;2024-03-23T04:27:38;5.55;;;2.65;;
9698;SDS011;10089;47.876;8.346;2024-03-23T04:30:04;5.35;;;2.78;;
9698;SDS011;10089;47.876;8.346;2024-03-23T04:32:35;3.75;;;2.53;;
9698;SDS011;10089;47.876;8.346;2024-03-23T04:35:01;7.32;;;2.60;;
9698;SDS011;10089;47.876;8.346;2024-03-23T04:37:28;4.00;;;2.25;;
9698;SDS011;10089;47.876;8.346;2024-03-23T04:39:53;3.03;;;2.42;;
9698;SDS011;10089;47.876;8.346;2024-03-23T04:42:19;5.20;;;2.50;;
9698;SDS011;10089;47.876;8.346;2024-03-23T04:44:45;4.57;;;2.65;;
9698;SDS011;10089;47.876;8.346;2024-03-23T04:47:10;4.28;;;2.67;;
9698;SDS011;10089;47.876;8.346;2024-03-23T04:49:36;7.10;;;2.95;;
9698;SDS011;10089;47.876;8.346;2024-03-23T04:52:04;4.60;;;2.97;;
9698;SDS011;10089;47.876;8.346;2024-03-23T04:54:30;4.63;;;2.35;;
9698;SDS011;10089;47.876;8.346;2024-03-23T04:56:57;3.75;;;1.88;;
9698;SDS011;10089;47.876;8.346;2024-03-23T04:59:23;4.65;;;2.38;;
9698;SDS011;10089;47.876;8.346;2024-03-23T05:01:48;4.68;;;2.15;;
9698;SDS011;10089;47.876;8.346;2024-03-23T05:04:14;7.03;;;2.20;;
9698;SDS011;10089;47.876;8.346;2024-03-23T05:06:39;3.42;;;2.28;;
9698;SDS011;10089;47.876;8.346;2024-03-23T05:09:05;4.82;;;2.10;;
9698;SDS011;10089;47.876;8.346;2024-03-23T05:11:32;4.60;;;2.13;;
9698;SDS011;10089;47.876;8.346;2024-03-23T05:13:58;2.97;;;2.08;;
9698;SDS011;10089;47.876;8.346;2024-03-23T05:16:24;2.10;;;1.90;;
9698;SDS011;10089;47.876;8.346;2024-03-23T05:18:49;2.67;;;2.22;;
9698;SDS011;10089;47.876;8.346;2024-03-23T05:21:15;3.20;;;2.67;;
9698;SDS011;10089;47.876;8.346;2024-03-23T05:23:40;4.00;;;2.83;;
9698;SDS011;10089;47.876;8.346;2024-03-23T05:26:08;4.30;;;2.85;;
9698;SDS011;10089;47.876;8.346;2024-03-23T05:28:34;5.80;;;3.17;;
9698;SDS011;10089;47.876;8.346;2024-03-23T05:31:00;5.75;;;3.28;;
9698;SDS011;10089;47.876;8.346;2024-03-23T05:33:25;3.13;;;2.80;;
9698;SDS011;10089;47.876;8.346;2024-03-23T05:35:57;5.10;;;3.35;;
9698;SDS011;10089;47.876;8.346;2024-03-23T05:38:24;4.13;;;3.33;;
9698;SDS011;10089;47.876;8.346;2024-03-23T05:40:59;5.50;;;3.30;;
9698;SDS011;10089;47.876;8.346;2024-03-23T05:43:25;6.30;;;3.63;;
9698;SDS011;10089;47.876;8.346;2024-03-23T05:45:55;6.43;;;3.95;;
9698;SDS011;10089;47.876;8.346;2024-03-23T05:48:21;5.82;;;3.97;;
9698;SDS011;10089;47.876;8.346;2024-03-23T05:50:50;5.45;;;4.30;;
9698;SDS011;10089;47.876;8.346;2024-03-23T05:53:16;4.85;;;4.05;;
9698;SDS011;10089;47.876;8.346;2024-03-23T05:55:42;4.97;;;3.78;;
9698;SDS011;10089;47.876;8.346;2024-03-23T05:58:08;5.38;;;3.95;;
9698;SDS011;10089;47.876;8.346;2024-03-23T06:00:34;5.20;;;4.05;;
9698;SDS011;10089;47.876;8.346;2024-03-23T06:03:00;11.55;;;3.75;;
9698;SDS011;10089;47.876;8.346;2024-03-23T06:05:26;4.68;;;2.88;;
9698;SDS011;10089;47.876;8.346;2024-03-23T06:07:52;4.15;;;2.83;;
9698;SDS011;10089;47.876;8.346;2024-03-23T06:10:18;4.80;;;2.67;;
9698;SDS011;10089;47.876;8.346;2024-03-23T06:12:43;4.18;;;2.25;;
9698;SDS011;10089;47.876;8.346;2024-03-23T06:15:11;2.30;;;2.10;;
9698;SDS011;10089;47.876;8.346;2024-03-23T06:17:37;4.03;;;2.20;;
9698;SDS011;10089;47.876;8.346;2024-03-23T06:20:03;3.20;;;2.20;;
9698;SDS011;10089;47.876;8.346;2024-03-23T06:22:33;3.08;;;2.28;;
9698;SDS011;10089;47.876;8.346;2024-03-23T06:24:59;2.22;;;2.03;;
9698;SDS011;10089;47.876;8.346;2024-03-23T06:27:25;2.35;;;2.00;;
9698;SDS011;10089;47.876;8.346;2024-03-23T06:29:50;5.82;;;2.50;;
9698;SDS011;10089;47.876;8.346;2024-03-23T06:32:16;2.45;;;2.25;;
9698;SDS011;10089;47.876;8.346;2024-03-23T06:34:42;2.75;;;2.03;;
9698;SDS011;10089;47.876;8.346;2024-03-23T06:37:07;2.70;;;2.28;;
9698;SDS011;10089;47.876;8.346;2024-03-23T06:39:35;2.97;;;2.40;;
9698;SDS011;10089;47.876;8.346;2024-03-23T06:42:04;3.00;;;2.55;;
9698;SDS011;10089;47.876;8.346;2024-03-23T06:44:30;4.07;;;2.63;;
9698;SDS011;10089;47.876;8.346;2024-03-23T06:46:56;3.38;;;2.70;;
9698;SDS011;10089;47.876;8.346;2024-03-23T06:49:25;3.78;;;2.67;;
9698;SDS011;10089;47.876;8.346;2024-03-23T06:51:50;3.78;;;2.80;;
9698;SDS011;10089;47.876;8.346;2024-03-23T06:54:16;5.20;;;3.33;;
9698;SDS011;10089;47.876;8.346;2024-03-23T06:56:43;7.57;;;4.03;;
9698;SDS011;10089;47.876;8.346;2024-03-23T06:59:09;7.53;;;4.35;;
9698;SDS011;10089;47.876;8.346;2024-03-23T07:01:35;5.00;;;3.60;;
9698;SDS011;10089;47.876;8.346;2024-03-23T07:04:00;3.80;;;3.08;;
9698;SDS011;10089;47.876;8.346;2024-03-23T07:06:26;2.13;;;1.85;;
9698;SDS011;10089;47.876;8.346;2024-03-23T07:08:52;3.15;;;2.10;;
9698;SDS011;10089;47.876;8.346;2024-03-23T07:11:18;3.72;;;2.30;;
9698;SDS011;10089;47.876;8.346;2024-03-23T07:13:51;3.03;;;2.25;;
9698;SDS011;10089;47.876;8.346;2024-03-23T07:16:17;2.10;;;1.80;;
9698;SDS011;10089;47.876;8.346;2024-03-23T07:18:43;2.17;;;1.33;;
9698;SDS011;10089;47.876;8.346;2024-03-23T07:21:09;3.15;;;2.10;;
9698;SDS011;10089;47.876;8.346;2024-03-23T07:23:34;1.98;;;1.65;;
9698;SDS011;10089;47.876;8.346;2024-03-23T07:26:01;1.63;;;1.25;;
9698;SDS011;10089;47.876;8.346;2024-03-23T07:28:27;0.93;;;0.93;;
9698;SDS011;10089;47.876;8.346;2024-03-23T07:31:06;1.25;;;1.10;;
9698;SDS011;10089;47.876;8.346;2024-03-23T07:33:35;1.10;;;1.00;;
9698;SDS011;10089;47.876;8.346;2024-03-23T07:36:02;1.10;;;1.00;;
9698;SDS011;10089;47.876;8.346;2024-03-23T07:38:28;2.28;;;0.82;;
9698;SDS011;10089;47.876;8.346;2024-03-23T07:41:07;0.70;;;0.70;;
9698;SDS011;10089;47.876;8.346;2024-03-23T07:43:34;0.70;;;0.70;;
9698;SDS011;10089;47.876;8.346;2024-03-23T07:46:00;0.70;;;0.70;;
9698;SDS011;10089;47.876;8.346;2024-03-23T07:48:26;0.60;;;0.60;;
9698;SDS011;10089;47.876;8.346;2024-03-23T07:50:59;1.13;;;0.70;;
9698;SDS011;10089;47.876;8.346;2024-03-23T07:53:26;0.70;;;0.70;;
9698;SDS011;10089;47.876;8.346;2024-03-23T07:55:56;0.80;;;0.80;;
9698;SDS011;10089;47.876;8.346;2024-03-23T07:58:22;0.80;;;0.80;;
9698;SDS011;10089;47.876;8.346;2024-03-23T08:00:48;0.70;;;0.70;;
9698;SDS011;10089;47.876;8.346;2024-03-23T08:03:14;0.80;;;0.80;;
9698;SDS011;10089;47.876;8.346;2024-03-23T08:05:39;1.05;;;0.95;;
9698;SDS011;10089;47.876;8.346;2024-03-23T08:08:05;0.70;;;0.70;;
9698;SDS011;10089;47.876;8.346;2024-03-23T08:10:31;1.67;;;0.80;;
9698;SDS011;10089;47.876;8.346;2024-03-23T08:12:56;0.60;;;0.60;;
9698;SDS011;10089;47.876;8.346;2024-03-23T08:15:22;0.80;;;0.80;;
9698;SDS011;10089;47.876;8.346;2024-03-23T08:17:48;1.98;;;1.30;;
9698;SDS011;10089;47.876;8.346;2024-03-23T08:20:14;1.35;;;0.85;;
9698;SDS011;10089;47.876;8.346;2024-03-23T08:22:40;0.75;;;0.75;;
9698;SDS011;10089;47.876;8.346;2024-03-23T08:25:05;0.80;;;0.80;;
9698;SDS011;10089;47.876;8.346;2024-03-23T08:27:31;0.60;;;0.60;;
9698;SDS011;10089;47.876;8.346;2024-03-23T08:29:58;1.20;;;0.90;;
9698;SDS011;10089;47.876;8.346;2024-03-23T08:32:23;1.33;;;1.20;;
9698;SDS011;10089;47.876;8.346;2024-03-23T08:34:49;1.38;;;1.27;;
9698;SDS011;10089;47.876;8.346;2024-03-23T08:37:14;1.50;;;1.17;;
9698;SDS011;10089;47.876;8.346;2024-03-23T08:39:40;1.10;;;1.00;;
9698;SDS011;10089;47.876;8.346;2024-03-23T08:42:08;1.52;;;1.10;;
9698;SDS011;10089;47.876;8.346;2024-03-23T08:44:33;3.20;;;1.20;;
9698;SDS011;10089;47.876;8.346;2024-03-23T08:46:59;1.40;;;1.30;;
9698;SDS011;10089;47.876;8.346;2024-03-23T08:49:26;2.10;;;1.33;;
9698;SDS011;10089;47.876;8.346;2024-03-23T08:51:51;2.35;;;1.23;;
9698;SDS011;10089;47.876;8.346;2024-03-23T08:54:17;2.22;;;1.25;;
9698;SDS011;10089;47.876;8.346;2024-03-23T08:56:45;2.15;;;1.02;;
9698;SDS011;10089;47.876;8.346;2024-03-23T08:59:11;1.40;;;1.30;;
9698;SDS011;10089;47.876;8.346;2024-03-23T09:01:36;2.47;;;1.48;;
9698;SDS011;10089;47.876;8.346;2024-03-23T09:04:03;2.72;;;1.58;;
9698;SDS011;10089;47.876;8.346;2024-03-23T09:06:29;2.83;;;1.50;;
9698;SDS011;10089;47.876;8.346;2024-03-23T09:08:54;3.55;;;1.50;;
9698;SDS011;10089;47.876;8.346;2024-03-23T09:11:20;4.53;;;1.50;;
9698;SDS011;10089;47.876;8.346;2024-03-23T09:13:46;4.78;;;1.67;;
9698;SDS011;10089;47.876;8.346;2024-03-23T09:16:11;2.28;;;1.50;;
9698;SDS011;10089;47.876;8.346;2024-03-23T09:18:37;3.55;;;2.20;;
9698;SDS011;10089;47.876;8.346;2024-03-23T09:21:03;4.53;;;2.38;;
9698;SDS011;10089;47.876;8.346;2024-03-23T09:23:35;5.05;;;1.90;;
9698;SDS011;10089;47.876;8.346;2024-03-23T09:26:04;3.75;;;2.17;;
9698;SDS011;10089;47.876;8.346;2024-03-23T09:28:30;4.65;;;2.42;;
9698;SDS011;10089;47.876;8.346;2024-03-23T09:31:01;4.25;;;2.20;;
9698;SDS011;10089;47.876;8.346;2024-03-23T09:33:28;6.55;;;2.78;;
9698;SDS011;10089;47.876;8.346;2024-03-23T09:35:54;5.57;;;2.67;;
9698;SDS011;10089;47.876;8.346;2024-03-23T09:38:21;7.40;;;2.13;;
9698;SDS011;10089;47.876;8.346;2024-03-23T09:40:48;3.42;;;2.22;;
9698;SDS011;10089;47.876;8.346;2024-03-23T09:43:18;8.13;;;2.55;;
9698;SDS011;10089;47.876;8.346;2024-03-23T09:45:44;7.75;;;2.10;;
9698;SDS011;10089;47.876;8.346;2024-03-23T09:48:11;4.68;;;2.45;;
9698;SDS011;10089;47.876;8.346;2024-03-23T09:50:40;7.43;;;2.58;;
9698;SDS011;10089;47.876;8.346;2024-03-23T09:53:07;3.08;;;1.95;;
9698;SDS011;10089;47.876;8.346;2024-03-23T09:55:34;5.95;;;2.20;;
9698;SDS011;10089;47.876;8.346;2024-03-23T09:58:01;6.35;;;2.75;;
9698;SDS011;10089;47.876;8.346;2024-03-23T10:00:27;2.33;;;1.70;;
9698;SDS011;10089;47.876;8.346;2024-03-23T10:02:54;6.60;;;2.72;;
9698;SDS011;10089;47.876;8.346;2024-03-23T10:05:21;3.28;;;2.10;;
9698;SDS011;10089;47.876;8.346;2024-03-23T10:07:48;2.83;;;2.33;;
9698;SDS011;10089;47.876;8.346;2024-03-23T10:10:15;4.25;;;2.20;;
9698;SDS011;10089;47.876;8.346;2024-03-23T10:12:45;7.15;;;2.50;;
9698;SDS011;10089;47.876;8.346;2024-03-23T10:15:18;4.03;;;1.85;;
9698;SDS011;10089;47.876;8.346;2024-03-23T10:17:47;4.40;;;2.10;;
9698;SDS011;10089;47.876;8.346;2024-03-23T10:20:13;5.30;;;2.10;;
9698;SDS011;10089;47.876;8.346;2024-03-23T10:22:45;4.63;;;2.00;;
9698;SDS011;10089;47.876;8.346;2024-03-23T10:25:11;6.95;;;2.25;;
9698;SDS011;10089;47.876;8.346;2024-03-23T10:27:38;6.30;;;2.30;;
9698;SDS011;10089;47.876;8.346;2024-03-23T10:30:08;4.18;;;2.08;;
9698;SDS011;10089;47.876;8.346;2024-03-23T10:32:38;8.75;;;3.60;;
9698;SDS011;10089;47.876;8.346;2024-03-23T10:35:16;5.03;;;2.58;;
9698;SDS011;10089;47.876;8.346;2024-03-23T10:37:48;2.92;;;1.58;;
9698;SDS011;10089;47.876;8.346;2024-03-23T10:40:16;5.35;;;1.60;;
9698;SDS011;10089;47.876;8.346;2024-03-23T10:42:43;2.92;;;1.35;;
9698;SDS011;10089;47.876;8.346;2024-03-23T10:45:09;5.28;;;1.95;;
9698;SDS011;10089;47.876;8.346;2024-03-23T10:47:35;4.68;;;1.63;;
9698;SDS011;10089;47.876;8.346;2024-03-23T10:50:03;6.78;;;2.42;;
9698;SDS011;10089;47.876;8.346;2024-03-23T10:52:30;4.50;;;1.42;;
9698;SDS011;10089;47.876;8.346;2024-03-23T10:54:57;8.68;;;1.98;;
9698;SDS011;10089;47.876;8.346;2024-03-23T10:57:26;4.57;;;1.83;;
9698;SDS011;10089;47.876;8.346;2024-03-23T11:00:02;4.85;;;1.58;;
9698;SDS011;10089;47.876;8.346;2024-03-23T11:02:29;4.75;;;1.77;;
9698;SDS011;10089;47.876;8.346;2024-03-23T11:04:55;5.43;;;2.25;;
9698;SDS011;10089;47.876;8.346;2024-03-23T11:09:59;4.28;;;1.88;;
9698;SDS011;10089;47.876;8.346;2024-03-23T11:17:36;4.97;;;1.50;;
9698;SDS011;10089;47.876;8.346;2024-03-23T11:20:05;4.50;;;1.60;;
9698;SDS011;10089;47.876;8.346;2024-03-23T11:27:56;5.40;;;2.03;;
9698;SDS011;10089;47.876;8.346;2024-03-23T11:32:49;3.88;;;1.73;;
9698;SDS011;10089;47.876;8.346;2024-03-23T11:35:26;3.20;;;1.60;;
9698;SDS011;10089;47.876;8.346;2024-03-23T11:40:27;2.83;;;1.20;;
9698;SDS011;10089;47.876;8.346;2024-03-23T11:43:00;1.92;;;1.10;;
9698;SDS011;10089;47.876;8.346;2024-03-23T11:45:28;1.20;;;1.10;;
9698;SDS011;10089;47.876;8.346;2024-03-23T11:50:42;1.35;;;0.98;;
9698;SDS011;10089;47.876;8.346;2024-03-23T11:53:22;0.82;;;0.82;;
9698;SDS011;10089;47.876;8.346;2024-03-23T11:55:49;1.73;;;1.30;;
9698;SDS011;10089;47.876;8.346;2024-03-23T11:58:17;2.90;;;1.90;;
9698;SDS011;10089;47.876;8.346;2024-03-23T12:00:59;7.25;;;1.85;;
9698;SDS011;10089;47.876;8.346;2024-03-23T12:03:27;2.80;;;1.58;;
9698;SDS011;10089;47.876;8.346;2024-03-23T12:05:54;1.67;;;1.45;;
9698;SDS011;10089;47.876;8.346;2024-03-23T12:08:24;4.50;;;2.05;;
9698;SDS011;10089;47.876;8.346;2024-03-23T12:11:04;2.35;;;1.30;;
9698;SDS011;10089;47.876;8.346;2024-03-23T12:13:30;3.75;;;1.48;;
9698;SDS011;10089;47.876;8.346;2024-03-23T12:15:58;1.92;;;1.10;;
9698;SDS011;10089;47.876;8.346;2024-03-23T12:18:54;1.80;;;1.13;;
9698;SDS011;10089;47.876;8.346;2024-03-23T12:21:30;3.63;;;1.83;;
9698;SDS011;10089;47.876;8.346;2024-03-23T12:23:56;4.63;;;1.30;;
9698;SDS011;10089;47.876;8.346;2024-03-23T12:26:21;3.30;;;2.22;;
9698;SDS011;10089;47.876;8.346;2024-03-23T12:28:48;4.88;;;1.40;;
9698;SDS011;10089;47.876;8.346;2024-03-23T12:31:13;3.45;;;2.10;;
9698;SDS011;10089;47.876;8.346;2024-03-23T12:33:39;3.33;;;1.35;;
9698;SDS011;10089;47.876;8.346;2024-03-23T12:36:05;7.75;;;1.42;;
9698;SDS011;10089;47.876;8.346;2024-03-23T12:38:30;2.42;;;1.80;;
9698;SDS011;10089;47.876;8.346;2024-03-23T12:40:56;4.05;;;1.35;;
9698;SDS011;10089;47.876;8.346;2024-03-23T12:43:21;2.85;;;1.27;;
9698;SDS011;10089;47.876;8.346;2024-03-23T12:45:47;2.75;;;1.58;;
9698;SDS011;10089;47.876;8.346;2024-03-23T12:48:14;5.28;;;1.23;;
9698;SDS011;10089;47.876;8.346;2024-03-23T12:50:39;1.85;;;1.20;;
9698;SDS011;10089;47.876;8.346;2024-03-23T12:53:05;5.50;;;1.45;;
9698;SDS011;10089;47.876;8.346;2024-03-23T12:55:31;4.50;;;1.70;;
9698;SDS011;10089;47.876;8.346;2024-03-23T12:57:56;5.35;;;1.13;;
9698;SDS011;10089;47.876;8.346;2024-03-23T13:00:22;4.50;;;1.67;;
9698;SDS011;10089;47.876;8.346;2024-03-23T13:02:47;3.00;;;1.58;;
9698;SDS011;10089;47.876;8.346;2024-03-23T13:05:14;4.13;;;1.50;;
9698;SDS011;10089;47.876;8.346;2024-03-23T13:07:39;4.93;;;1.77;;
9698;SDS011;10089;47.876;8.346;2024-03-23T13:10:05;3.13;;;1.58;;
9698;SDS011;10089;47.876;8.346;2024-03-23T13:12:31;2.17;;;1.50;;
9698;SDS011;10089;47.876;8.346;2024-03-23T13:14:58;3.05;;;1.50;;
9698;SDS011;10089;47.876;8.346;2024-03-23T13:17:26;6.80;;;1.60;;
9698;SDS011;10089;47.876;8.346;2024-03-23T13:19:55;7.20;;;1.92;;
9698;SDS011;10089;47.876;8.346;2024-03-23T13:22:21;5.43;;;2.08;;
9698;SDS011;10089;47.876;8.346;2024-03-23T13:24:47;7.75;;;2.35;;
9698;SDS011;10089;47.876;8.346;2024-03-23T13:27:12;11.43;;;4.25;;
9698;SDS011;10089;47.876;8.346;2024-03-23T13:29:38;7.07;;;2.78;;
9698;SDS011;10089;47.876;8.346;2024-03-23T13:32:04;5.05;;;2.00;;
9698;SDS011;10089;47.876;8.346;2024-03-23T13:34:29;3.15;;;1.50;;
9698;SDS011;10089;47.876;8.346;2024-03-23T13:36:55;4.55;;;2.00;;
9698;SDS011;10089;47.876;8.346;2024-03-23T13:39:24;3.45;;;1.90;;
9698;SDS011;10089;47.876;8.346;2024-03-23T13:41:50;5.75;;;2.05;;
9698;SDS011;10089;47.876;8.346;2024-03-23T13:44:16;4.07;;;1.55;;
9698;SDS011;10089;47.876;8.346;2024-03-23T13:46:42;6.82;;;1.80;;
9698;SDS011;10089;47.876;8.346;2024-03-23T13:51:54;3.28;;;1.17;;
9698;SDS011;10089;47.876;8.346;2024-03-23T13:54:21;3.65;;;1.70;;
9698;SDS011;10089;47.876;8.346;2024-03-23T13:56:53;4.25;;;2.40;;
9698;SDS011;10089;47.876;8.346;2024-03-23T13:59:21;6.47;;;1.75;;
9698;SDS011;10089;47.876;8.346;2024-03-23T14:01:48;5.10;;;1.67;;
9698;SDS011;10089;47.876;8.346;2024-03-23T14:04:14;5.30;;;2.80;;
9698;SDS011;10089;47.876;8.346;2024-03-23T14:06:41;6.05;;;2.47;;
9698;SDS011;10089;47.876;8.346;2024-03-23T14:09:07;5.85;;;1.80;;
9698;SDS011;10089;47.876;8.346;2024-03-23T14:11:36;4.35;;;2.20;;
9698;SDS011;10089;47.876;8.346;2024-03-23T14:14:02;3.83;;;2.03;;
9698;SDS011;10089;47.876;8.346;2024-03-23T14:16:29;7.15;;;1.77;;
9698;SDS011;10089;47.876;8.346;2024-03-23T14:18:55;7.15;;;2.15;;
9698;SDS011;10089;47.876;8.346;2024-03-23T14:21:21;5.25;;;1.77;;
9698;SDS011;10089;47.876;8.346;2024-03-23T14:23:46;4.05;;;1.80;;
9698;SDS011;10089;47.876;8.346;2024-03-23T14:26:12;5.10;;;1.60;;
9698;SDS011;10089;47.876;8.346;2024-03-23T14:28:38;5.68;;;1.70;;
9698;SDS011;10089;47.876;8.346;2024-03-23T14:31:04;5.28;;;2.15;;
9698;SDS011;10089;47.876;8.346;2024-03-23T14:33:35;5.93;;;1.33;;
9698;SDS011;10089;47.876;8.346;2024-03-23T14:36:10;4.75;;;1.98;;
9698;SDS011;10089;47.876;8.346;2024-03-23T14:38:36;4.82;;;2.03;;
9698;SDS011;10089;47.876;8.346;2024-03-23T14:41:02;3.78;;;1.88;;
9698;SDS011;10089;47.876;8.346;2024-03-23T14:43:28;7.57;;;1.63;;
9698;SDS011;10089;47.876;8.346;2024-03-23T14:46:07;6.00;;;2.45;;
9698;SDS011;10089;47.876;8.346;2024-03-23T14:48:38;11.00;;;1.80;;
9698;SDS011;10089;47.876;8.346;2024-03-23T14:51:04;10.57;;;2.22;;
9698;SDS011;10089;47.876;8.346;2024-03-23T14:53:33;7.25;;;2.88;;
9698;SDS011;10089;47.876;8.346;2024-03-23T14:56:07;8.90;;;3.35;;
9698;SDS011;10089;47.876;8.346;2024-03-23T14:58:34;10.75;;;3.25;;
9698;SDS011;10089;47.876;8.346;2024-03-23T15:01:07;6.22;;;2.55;;
9698;SDS011;10089;47.876;8.346;2024-03-23T15:03:36;6.47;;;2.83;;
9698;SDS011;10089;47.876;8.346;2024-03-23T15:06:04;10.57;;;3.03;;
9698;SDS011;10089;47.876;8.346;2024-03-23T15:08:30;8.90;;;2.50;;
9698;SDS011;10089;47.876;8.346;2024-03-23T15:10:58;2.92;;;1.17;;
9698;SDS011;10089;47.876;8.346;2024-03-23T15:13:25;3.20;;;1.77;;
9698;SDS011;10089;47.876;8.346;2024-03-23T15:15:50;7.07;;;1.95;;
9698;SDS011;10089;47.876;8.346;2024-03-23T15:18:17;7.10;;;1.80;;
9698;SDS011;10089;47.876;8.346;2024-03-23T15:20:57;6.85;;;1.80;;
9698;SDS011;10089;47.876;8.346;2024-03-23T15:23:27;4.95;;;1.83;;
9698;SDS011;10089;47.876;8.346;2024-03-23T15:26:00;8.48;;;2.03;;
9698;SDS011;10089;47.876;8.346;2024-03-23T15:28:26;5.47;;;2.17;;
9698;SDS011;10089;47.876;8.346;2024-03-23T15:31:03;3.97;;;1.73;;
9698;SDS011;10089;47.876;8.346;2024-03-23T15:33:32;7.22;;;1.88;;
9698;SDS011;10089;47.876;8.346;2024-03-23T15:36:02;7.53;;;1.90;;
9698;SDS011;10089;47.876;8.346;2024-03-23T15:38:28;3.08;;;1.58;;
9698;SDS011;10089;47.876;8.346;2024-03-23T15:40:57;3.20;;;1.50;;
9698;SDS011;10089;47.876;8.346;2024-03-23T15:43:22;8.50;;;2.17;;
9698;SDS011;10089;47.876;8.346;2024-03-23T15:46:21;6.18;;;1.90;;
9698;SDS011;10089;47.876;8.346;2024-03-23T15:48:40;7.07;;;3.03;;
9698;SDS011;10089;47.876;8.346;2024-03-23T15:51:11;4.70;;;2.03;;
9698;SDS011;10089;47.876;8.346;2024-03-23T15:53:37;4.47;;;2.22;;
9698;SDS011;10089;47.876;8.346;2024-03-23T15:56:03;1.90;;;1.30;;
9698;SDS011;10089;47.876;8.346;2024-03-23T15:58:30;4.35;;;1.65;;
9698;SDS011;10089;47.876;8.346;2024-03-23T16:01:00;4.10;;;1.40;;
9698;SDS011;10089;47.876;8.346;2024-03-23T16:03:27;33.85;;;3.55;;
9698;SDS011;10089;47.876;8.346;2024-03-23T16:05:53;9.95;;;1.80;;
9698;SDS011;10089;47.876;8.346;2024-03-23T16:08:20;3.42;;;1.40;;
9698;SDS011;10089;47.876;8.346;2024-03-23T16:10:46;6.35;;;2.10;;
9698;SDS011;10089;47.876;8.346;2024-03-23T16:13:12;7.38;;;3.00;;
9698;SDS011;10089;47.876;8.346;2024-03-23T16:15:37;4.93;;;1.35;;
9698;SDS011;10089;47.876;8.346;2024-03-23T16:18:03;2.00;;;1.30;;